TimeCDT,TemperatureF,Dew PointF,Humidity,Sea Level PressureIn,VisibilityMPH,Wind Direction,Wind SpeedMPH,Gust SpeedMPH,PrecipitationIn,Events,Conditions,WindDirDegrees,DateUTC
12:53 AM,81.0,53.1,38,29.91,10.0,SE,12.7,-,N/A,,Clear,140,2013-06-28 05:53:00
1:53 AM,79.0,55.9,45,29.89,10.0,SSE,13.8,-,N/A,,Clear,150,2013-06-28 06:53:00
2:53 AM,77.0,57.0,50,29.87,10.0,SSE,15.0,-,N/A,,Clear,160,2013-06-28 07:53:00
3:53 AM,75.9,55.0,48,29.88,10.0,SSE,9.2,-,N/A,,Unknown,150,2013-06-28 08:53:00
4:53 AM,71.1,53.1,53,29.91,10.0,North,10.4,-,N/A,,Clear,350,2013-06-28 09:53:00
5:53 AM,69.1,52.0,54,29.93,10.0,Calm,Calm,-,N/A,,Clear,0,2013-06-28 10:53:00
6:53 AM,69.1,52.0,54,29.94,10.0,SSE,8.1,-,N/A,,Clear,160,2013-06-28 11:53:00
7:53 AM,72.0,53.1,51,29.96,10.0,Calm,Calm,-,N/A,,Clear,0,2013-06-28 12:53:00
8:53 AM,79.0,53.1,40,29.96,10.0,SE,4.6,-,N/A,,Clear,130,2013-06-28 13:53:00
9:53 AM,84.0,52.0,33,29.98,10.0,ESE,5.8,-,N/A,,Clear,120,2013-06-28 14:53:00
10:53 AM,88.0,52.0,29,29.96,10.0,ESE,6.9,-,N/A,,Clear,110,2013-06-28 15:53:00
11:53 AM,91.0,48.0,23,29.97,10.0,North,3.5,-,N/A,,Clear,360,2013-06-28 16:53:00
12:53 PM,93.9,48.0,21,29.95,10.0,Variable,4.6,-,N/A,,Clear,0,2013-06-28 17:53:00
1:53 PM,97.0,46.9,18,29.93,10.0,ESE,6.9,-,N/A,,Clear,110,2013-06-28 18:53:00
2:53 PM,97.0,46.9,18,29.91,10.0,NE,6.9,-,N/A,,Clear,40,2013-06-28 19:53:00
3:53 PM,98.1,50.0,20,29.89,10.0,Variable,5.8,19.6,N/A,,Clear,0,2013-06-28 20:53:00
4:53 PM,98.1,46.9,18,29.88,10.0,ENE,8.1,16.1,N/A,,Clear,70,2013-06-28 21:53:00
5:53 PM,99.0,46.0,16,29.86,10.0,ENE,10.4,-,N/A,,Clear,70,2013-06-28 22:53:00
6:53 PM,98.1,48.9,19,29.84,10.0,ENE,12.7,21.9,N/A,,Clear,70,2013-06-28 23:53:00
7:53 PM,96.1,48.9,20,29.84,10.0,ESE,6.9,-,N/A,,Clear,110,2013-06-29 00:53:00
8:53 PM,93.9,50.0,22,29.83,10.0,SE,6.9,-,N/A,,Clear,130,2013-06-29 01:53:00
9:53 PM,88.0,50.0,27,29.84,10.0,SSE,4.6,-,N/A,,Clear,150,2013-06-29 02:53:00
10:53 PM,86.0,50.0,29,29.85,10.0,South,6.9,-,N/A,,Clear,170,2013-06-29 03:53:00
11:53 PM,84.9,51.1,31,29.86,10.0,SSW,9.2,-,N/A,,Clear,200,2013-06-29 04:53:00